createdAt,value
2018-10-11T00:02:15.668Z,30.03
2018-10-11T00:04:43.960Z,30.50
2018-10-11T00:07:12.244Z,29.17
2018-10-11T00:09:40.529Z,29.93
2018-10-11T00:12:08.805Z,30.60
2018-10-11T00:14:37.088Z,30.10
2018-10-11T00:17:05.368Z,30.40
2018-10-11T00:19:33.636Z,30.87
2018-10-11T00:22:01.905Z,29.90
2018-10-11T00:24:30.168Z,28.93
2018-10-11T00:26:58.448Z,31.33
2018-10-11T00:29:26.720Z,31.60
2018-10-11T00:31:55.007Z,31.63
2018-10-11T00:34:23.434Z,33.83
2018-10-11T00:36:51.699Z,32.60
2018-10-11T00:39:19.974Z,30.90
2018-10-11T00:41:48.250Z,29.90
2018-10-11T00:44:16.892Z,31.97
2018-10-11T00:46:46.476Z,32.40
2018-10-11T00:49:14.771Z,30.57
2018-10-11T00:51:43.051Z,31.77
2018-10-11T00:54:11.329Z,31.00
2018-10-11T00:56:40.040Z,32.17
2018-10-11T00:59:08.944Z,31.67
2018-10-11T01:01:37.244Z,31.97
2018-10-11T01:04:05.512Z,30.93
2018-10-11T01:06:33.800Z,31.00
2018-10-11T01:09:02.085Z,29.20
2018-10-11T01:11:30.380Z,30.03
2018-10-11T01:13:58.672Z,28.17
2018-10-11T01:16:26.961Z,28.33
2018-10-11T01:18:55.244Z,30.57
2018-10-11T01:21:23.538Z,28.50
2018-10-11T01:23:51.850Z,28.70
2018-10-11T01:26:20.155Z,29.63
2018-10-11T01:28:48.438Z,29.00
2018-10-11T01:31:21.837Z,31.43
2018-10-11T01:33:50.388Z,30.43
2018-10-11T01:36:18.752Z,30.37
2018-10-11T01:38:48.546Z,30.33
2018-10-11T01:41:16.794Z,31.77
2018-10-11T01:43:45.073Z,29.47
2018-10-11T01:46:13.366Z,30.60
2018-10-11T01:48:41.737Z,30.10
2018-10-11T01:51:10.405Z,29.40
2018-10-11T01:53:38.815Z,29.30
2018-10-11T01:56:07.325Z,29.90
2018-10-11T01:58:35.613Z,28.60
2018-10-11T02:01:03.913Z,29.93
2018-10-11T02:03:32.188Z,31.00
2018-10-11T02:06:00.467Z,30.83
2018-10-11T02:08:28.755Z,29.67
2018-10-11T02:10:57.093Z,28.90
2018-10-11T02:13:25.364Z,29.83
2018-10-11T02:15:53.649Z,29.90
2018-10-11T02:18:21.945Z,31.00
2018-10-11T02:20:50.232Z,31.60
2018-10-11T02:23:18.523Z,33.13
2018-10-11T02:25:46.805Z,30.80
2018-10-11T02:28:15.125Z,32.90
2018-10-11T02:30:43.402Z,32.07
2018-10-11T02:33:11.684Z,32.13
2018-10-11T02:35:39.970Z,33.73
2018-10-11T02:38:08.365Z,32.47
2018-10-11T02:40:36.652Z,31.57
2018-10-11T02:43:04.945Z,34.43
2018-10-11T02:45:33.261Z,30.53
2018-10-11T02:48:01.561Z,31.40
2018-10-11T02:50:29.855Z,30.63
2018-10-11T02:52:58.137Z,28.90
2018-10-11T02:55:27.259Z,29.57
2018-10-11T02:58:06.831Z,27.90
2018-10-11T03:00:35.518Z,28.77
2018-10-11T03:03:06.391Z,29.03
2018-10-11T03:05:36.825Z,30.13
2018-10-11T03:08:05.659Z,31.77
2018-10-11T03:10:33.982Z,31.13
2018-10-11T03:13:02.265Z,31.07
2018-10-11T03:15:30.580Z,31.90
2018-10-11T03:17:58.864Z,31.97
2018-10-11T03:20:27.140Z,30.53
2018-10-11T03:22:55.422Z,31.50
2018-10-11T03:25:23.715Z,33.13
2018-10-11T03:27:51.992Z,32.23
2018-10-11T03:30:20.290Z,34.23
2018-10-11T03:32:48.584Z,29.87
2018-10-11T03:35:16.886Z,29.33
2018-10-11T03:37:45.172Z,30.50
2018-10-11T03:40:13.473Z,29.70
2018-10-11T03:42:41.769Z,29.80
2018-10-11T03:45:10.307Z,32.83
2018-10-11T03:47:38.605Z,34.00
2018-10-11T03:50:06.941Z,32.57
2018-10-11T03:52:35.234Z,32.93
2018-10-11T03:55:03.540Z,33.57
2018-10-11T03:57:31.819Z,34.40
2018-10-11T04:00:00.148Z,32.60
2018-10-11T04:02:28.482Z,33.13
2018-10-11T04:04:56.736Z,32.33
2018-10-11T04:07:25.437Z,32.20
2018-10-11T04:09:53.661Z,29.80
2018-10-11T04:12:21.913Z,29.63
2018-10-11T04:14:50.234Z,29.73
2018-10-11T04:17:18.584Z,29.93
2018-10-11T04:19:46.849Z,30.77
2018-10-11T04:22:15.159Z,32.27
2018-10-11T04:24:43.580Z,33.83
2018-10-11T04:27:11.837Z,30.30
2018-10-11T04:29:40.096Z,29.83
2018-10-11T04:32:08.440Z,28.67
2018-10-11T04:34:36.691Z,29.37
2018-10-11T04:37:04.962Z,30.57
2018-10-11T04:39:33.217Z,29.77
2018-10-11T04:42:01.465Z,31.37
2018-10-11T04:44:34.288Z,29.97
2018-10-11T04:47:03.100Z,32.13
2018-10-11T04:49:31.368Z,29.50
2018-10-11T04:51:59.970Z,30.43
2018-10-11T04:54:28.228Z,29.13
2018-10-11T04:56:56.494Z,29.93
2018-10-11T04:59:24.724Z,32.20
2018-10-11T05:01:52.968Z,31.47
2018-10-11T05:04:21.333Z,29.87
2018-10-11T05:06:49.601Z,32.80
2018-10-11T05:09:17.849Z,36.53
2018-10-11T05:11:46.125Z,36.87
2018-10-11T05:14:14.904Z,34.57
2018-10-11T05:16:43.635Z,33.67
2018-10-11T05:19:11.935Z,33.63
2018-10-11T05:21:40.452Z,33.40
2018-10-11T05:24:08.763Z,34.30
2018-10-11T05:26:37.015Z,33.77
2018-10-11T05:29:05.261Z,32.17
2018-10-11T05:31:33.520Z,34.20
2018-10-11T05:34:01.748Z,34.60
2018-10-11T05:36:29.968Z,35.90
2018-10-11T05:38:58.213Z,33.97
2018-10-11T05:41:26.465Z,32.97
2018-10-11T05:43:54.728Z,34.07
2018-10-11T05:46:31.517Z,33.17
2018-10-11T05:49:00.897Z,34.70
2018-10-11T05:51:30.021Z,33.67
2018-10-11T05:53:58.564Z,33.70
2018-10-11T05:56:28.593Z,32.40
2018-10-11T05:58:57.205Z,32.20
2018-10-11T06:01:25.449Z,32.63
2018-10-11T06:03:54.333Z,34.77
2018-10-11T06:06:22.587Z,33.33
2018-10-11T06:08:51.065Z,34.00
2018-10-11T06:11:19.458Z,32.90
2018-10-11T06:13:48.418Z,34.73
2018-10-11T06:16:16.667Z,31.43
2018-10-11T06:18:45.446Z,32.40
2018-10-11T06:21:13.985Z,29.13
2018-10-11T06:23:42.396Z,28.63
2018-10-11T06:26:10.757Z,31.93
2018-10-11T06:28:39.082Z,30.60
2018-10-11T06:31:07.348Z,28.17
2018-10-11T06:33:35.685Z,28.77
2018-10-11T06:36:03.990Z,30.50
2018-10-11T06:38:32.269Z,30.27
2018-10-11T06:41:00.537Z,29.07
2018-10-11T06:43:28.861Z,30.97
2018-10-11T06:45:57.124Z,30.07
2018-10-11T06:48:25.490Z,30.30
2018-10-11T06:50:53.724Z,31.20
2018-10-11T06:53:21.997Z,32.03
2018-10-11T06:55:50.284Z,32.87
2018-10-11T06:58:18.485Z,31.73
2018-10-11T07:00:46.745Z,32.13
2018-10-11T07:03:14.968Z,32.90
2018-10-11T07:05:43.220Z,32.07
2018-10-11T07:08:11.469Z,30.77
2018-10-11T07:10:39.733Z,30.93
2018-10-11T07:13:08.204Z,32.47
2018-10-11T07:15:36.484Z,30.40
2018-10-11T07:18:04.718Z,28.03
2018-10-11T07:20:32.956Z,25.53
2018-10-11T07:23:01.193Z,21.30
2018-10-11T07:25:29.432Z,16.50
2018-10-11T07:27:57.698Z,16.57
2018-10-11T07:30:25.948Z,15.27
2018-10-11T07:32:54.188Z,14.93
2018-10-11T07:35:22.605Z,15.60
2018-10-11T07:37:50.715Z,16.87
2018-10-11T07:40:19.174Z,17.80
2018-10-11T07:42:47.319Z,16.50
2018-10-11T07:45:15.584Z,15.35
2018-10-11T07:47:43.828Z,15.10
2018-10-11T07:50:12.145Z,14.47
2018-10-11T07:52:40.410Z,14.13
2018-10-11T07:55:08.624Z,13.10
2018-10-11T07:57:36.866Z,15.35
2018-10-11T08:00:05.391Z,12.63
2018-10-11T08:02:33.687Z,14.30
2018-10-11T08:05:01.936Z,13.50
2018-10-11T08:07:30.267Z,14.13
2018-10-11T08:09:58.470Z,13.25
2018-10-11T08:12:26.720Z,13.45
2018-10-11T08:14:55.010Z,13.15
2018-10-11T08:17:23.611Z,14.05
2018-10-11T08:19:51.610Z,12.37
2018-10-11T08:22:19.981Z,12.10
2018-10-11T08:24:48.303Z,11.50
2018-10-11T08:27:16.537Z,11.43
2018-10-11T08:29:44.743Z,11.55
2018-10-11T08:32:13.112Z,12.53
2018-10-11T08:34:41.287Z,12.43
2018-10-11T08:37:09.584Z,11.75
2018-10-11T08:39:37.812Z,11.70
2018-10-11T08:42:06.068Z,11.05
2018-10-11T08:44:34.313Z,11.43
2018-10-11T08:47:02.605Z,10.10
2018-10-11T08:49:30.840Z,10.70
2018-10-11T08:51:59.093Z,9.78
2018-10-11T08:54:32.693Z,9.65
2018-10-11T08:57:01.531Z,9.53
2018-10-11T08:59:29.806Z,8.98
2018-10-11T09:01:58.124Z,9.10
2018-10-11T09:04:26.416Z,8.45
2018-10-11T09:06:54.669Z,8.80
2018-10-11T09:09:22.931Z,7.78
2018-10-11T09:11:51.152Z,7.30
2018-10-11T09:14:19.448Z,8.00
2018-10-11T09:16:47.674Z,7.90
2018-10-11T09:19:15.894Z,8.03
2018-10-11T09:21:44.139Z,7.37
2018-10-11T09:24:12.378Z,7.15
2018-10-11T09:26:40.645Z,7.25
2018-10-11T09:29:08.882Z,7.55
2018-10-11T09:31:37.256Z,7.00
2018-10-11T09:34:05.554Z,7.62
2018-10-11T09:36:33.837Z,7.15
2018-10-11T09:39:02.028Z,7.08
2018-10-11T09:41:30.277Z,7.42
2018-10-11T09:43:58.568Z,7.03
2018-10-11T09:46:26.800Z,7.15
2018-10-11T09:48:55.153Z,6.55
2018-10-11T09:51:23.332Z,6.90
2018-10-11T09:53:51.745Z,7.00
2018-10-11T09:56:20.006Z,6.55
2018-10-11T09:58:48.286Z,7.03
2018-10-11T10:01:22.882Z,6.95
2018-10-11T10:03:51.112Z,7.72
2018-10-11T10:06:19.342Z,7.30
2018-10-11T10:08:48.224Z,6.60
2018-10-11T10:11:16.472Z,6.58
2018-10-11T10:13:44.708Z,7.55
2018-10-11T10:16:12.932Z,6.95
2018-10-11T10:18:41.156Z,7.33
2018-10-11T10:21:09.458Z,6.25
2018-10-11T10:23:37.641Z,6.33
2018-10-11T10:26:05.872Z,6.65
2018-10-11T10:28:34.092Z,7.53
2018-10-11T10:31:02.410Z,7.20
2018-10-11T10:33:30.632Z,6.85
2018-10-11T10:35:58.851Z,6.40
2018-10-11T10:38:27.101Z,6.80
2018-10-11T10:40:55.327Z,6.62
2018-10-11T10:43:23.565Z,6.37
2018-10-11T10:45:52.098Z,6.75
2018-10-11T10:48:20.356Z,6.42
2018-10-11T10:50:48.592Z,6.42
2018-10-11T10:53:16.817Z,6.65
2018-10-11T10:55:45.138Z,7.78
2018-10-11T10:58:13.402Z,6.37
2018-10-11T11:00:41.629Z,6.83
2018-10-11T11:03:09.854Z,6.87
2018-10-11T11:05:38.096Z,6.62
2018-10-11T11:08:06.320Z,6.58
2018-10-11T11:10:34.623Z,6.15
2018-10-11T11:13:02.909Z,6.80
2018-10-11T11:15:31.093Z,6.95
2018-10-11T11:17:59.330Z,6.58
2018-10-11T11:20:27.556Z,7.08
2018-10-11T11:22:55.790Z,6.35
2018-10-11T11:25:24.155Z,6.58
2018-10-11T11:27:52.392Z,6.67
2018-10-11T11:30:20.620Z,6.90
2018-10-11T11:32:48.860Z,6.80
2018-10-11T11:35:17.085Z,6.70
2018-10-11T11:37:45.320Z,7.05
2018-10-11T11:40:13.548Z,6.60
2018-10-11T11:42:41.794Z,6.62
2018-10-11T11:45:10.021Z,7.03
2018-10-11T11:47:38.320Z,6.33
2018-10-11T11:50:06.626Z,6.80
2018-10-11T11:52:34.853Z,6.53
2018-10-11T11:55:03.145Z,6.50
2018-10-11T11:57:31.387Z,6.67
2018-10-11T11:59:59.641Z,6.45
2018-10-11T12:02:27.916Z,6.70
2018-10-11T12:04:56.130Z,5.72
2018-10-11T12:07:24.359Z,6.30
2018-10-11T12:09:52.592Z,6.10
2018-10-11T12:12:59.001Z,6.22
2018-10-11T12:15:28.401Z,6.47
2018-10-11T12:17:57.770Z,5.95
2018-10-11T12:20:27.094Z,6.30
2018-10-11T12:22:56.517Z,5.72
2018-10-11T12:25:24.849Z,6.10
2018-10-11T12:27:53.098Z,5.70
2018-10-11T12:30:21.358Z,6.03
2018-10-11T12:32:49.612Z,6.42
2018-10-11T12:35:19.094Z,5.42
2018-10-11T12:37:47.603Z,6.10
2018-10-11T12:40:16.128Z,5.80
2018-10-11T12:42:44.365Z,6.10
2018-10-11T12:45:13.416Z,5.90
2018-10-11T12:47:41.665Z,5.80
2018-10-11T12:50:10.887Z,6.17
2018-10-11T12:52:39.051Z,5.55
2018-10-11T12:55:07.734Z,5.90
2018-10-11T12:57:36.248Z,5.70
2018-10-11T13:00:04.904Z,6.10
2018-10-11T13:02:33.154Z,5.87
2018-10-11T13:05:01.393Z,5.35
2018-10-11T13:07:29.662Z,5.70
2018-10-11T13:09:57.902Z,5.78
2018-10-11T13:12:26.197Z,5.50
2018-10-11T13:14:54.473Z,5.33
2018-10-11T13:17:22.705Z,5.08
2018-10-11T13:19:51.210Z,4.95
2018-10-11T13:22:19.461Z,5.62
2018-10-11T13:24:49.252Z,5.65
2018-10-11T13:27:16.097Z,5.05
2018-10-11T13:29:44.421Z,5.00
2018-10-11T13:32:12.887Z,4.67
2018-10-11T13:34:41.187Z,5.20
2018-10-11T13:37:09.430Z,5.55
2018-10-11T13:39:37.685Z,5.47
2018-10-11T13:42:05.984Z,5.50
2018-10-11T13:44:34.640Z,5.25
2018-10-11T13:47:02.878Z,5.17
2018-10-11T13:49:31.166Z,4.78
2018-10-11T13:51:59.438Z,5.00
2018-10-11T13:54:27.685Z,4.80
2018-10-11T13:56:58.797Z,5.35
2018-10-11T13:59:24.191Z,5.33
2018-10-11T14:01:52.442Z,4.83
2018-10-11T14:04:20.698Z,5.35
2018-10-11T14:06:48.962Z,4.80
2018-10-11T14:09:17.189Z,4.97
2018-10-11T14:11:45.672Z,5.03
2018-10-11T14:14:13.936Z,5.20
2018-10-11T14:16:42.176Z,4.70
2018-10-11T14:19:10.407Z,5.40
2018-10-11T14:21:38.641Z,5.37
2018-10-11T14:24:07.196Z,5.58
2018-10-11T14:26:35.386Z,4.93
2018-10-11T14:29:04.610Z,5.53
2018-10-11T14:31:34.182Z,4.70
2018-10-11T14:34:02.688Z,4.97
2018-10-11T14:36:31.067Z,5.00
2018-10-11T14:38:59.293Z,5.67
2018-10-11T14:41:27.630Z,5.23
2018-10-11T14:43:55.920Z,4.97
2018-10-11T14:46:24.164Z,4.97
2018-10-11T14:48:52.400Z,4.90
2018-10-11T14:51:20.681Z,5.25
2018-10-11T14:53:53.995Z,5.70
2018-10-11T14:56:18.976Z,6.93
2018-10-11T14:58:47.252Z,7.47
2018-10-11T15:01:15.676Z,11.57
2018-10-11T15:03:43.957Z,14.13
2018-10-11T15:06:12.213Z,12.17
2018-10-11T15:08:40.456Z,8.33
2018-10-11T15:11:08.938Z,9.60
2018-10-11T15:13:37.189Z,8.63
2018-10-11T15:16:05.492Z,5.83
2018-10-11T15:18:33.752Z,6.77
2018-10-11T15:21:01.989Z,6.63
2018-10-11T15:23:30.405Z,5.57
2018-10-11T15:25:58.633Z,5.40
2018-10-11T15:28:27.093Z,5.67
2018-10-11T15:30:55.539Z,5.40
2018-10-11T15:33:23.775Z,5.23
2018-10-11T15:35:52.011Z,5.10
2018-10-11T15:38:20.251Z,5.60
2018-10-11T15:40:48.506Z,6.03
2018-10-11T15:43:16.748Z,5.60
2018-10-11T15:45:44.984Z,5.73
2018-10-11T15:48:13.254Z,5.23
2018-10-11T15:50:41.597Z,5.20
2018-10-11T15:53:09.732Z,5.93
2018-10-11T15:55:38.013Z,6.07
2018-10-11T15:58:06.236Z,6.30
2018-10-11T16:00:34.484Z,6.00
2018-10-11T16:03:02.704Z,5.30
2018-10-11T16:05:31.015Z,5.60
2018-10-11T16:07:59.237Z,5.53
2018-10-11T16:10:27.480Z,6.83
2018-10-11T16:12:55.717Z,6.30
2018-10-11T16:15:23.992Z,5.83
2018-10-11T16:17:52.248Z,6.60
2018-10-11T16:20:20.497Z,7.00
2018-10-11T16:22:48.758Z,6.53
2018-10-11T16:25:17.009Z,6.23
2018-10-11T16:27:45.263Z,6.97
2018-10-11T16:30:13.508Z,6.67
2018-10-11T16:32:41.753Z,6.53
2018-10-11T16:35:10.007Z,6.90
2018-10-11T16:37:38.253Z,6.17
2018-10-11T16:40:06.513Z,6.20
2018-10-11T16:42:34.778Z,5.97
2018-10-11T16:45:03.029Z,6.13
2018-10-11T16:47:31.320Z,6.50
2018-10-11T16:49:59.610Z,6.70
2018-10-11T16:52:27.864Z,6.63
2018-10-11T16:54:56.101Z,6.33
2018-10-11T16:57:24.361Z,6.93
2018-10-11T16:59:52.601Z,6.30
2018-10-11T17:02:20.890Z,6.70
2018-10-11T17:04:49.137Z,6.70
2018-10-11T17:07:17.408Z,6.57
2018-10-11T17:09:45.714Z,6.57
2018-10-11T17:12:13.948Z,7.13
2018-10-11T17:14:42.200Z,7.43
2018-10-11T17:17:11.312Z,7.13
2018-10-11T17:19:39.578Z,7.10
2018-10-11T17:22:07.979Z,7.30
2018-10-11T17:24:36.095Z,7.47
2018-10-11T17:27:04.381Z,7.40
2018-10-11T17:29:32.693Z,7.47
2018-10-11T17:32:00.922Z,8.00
2018-10-11T17:34:29.185Z,8.10
2018-10-11T17:36:57.435Z,8.57
2018-10-11T17:39:25.692Z,9.10
2018-10-11T17:41:53.962Z,8.83
2018-10-11T17:44:22.256Z,8.53
2018-10-11T17:46:50.526Z,8.03
2018-10-11T17:49:18.773Z,7.90
2018-10-11T17:51:47.595Z,8.57
2018-10-11T17:54:16.473Z,8.00
2018-10-11T17:56:44.816Z,7.93
2018-10-11T17:59:13.067Z,7.83
2018-10-11T18:01:41.354Z,7.70
2018-10-11T18:04:09.650Z,7.87
2018-10-11T18:06:38.186Z,7.57
2018-10-11T18:09:07.184Z,8.17
2018-10-11T18:11:35.454Z,8.20
2018-10-11T18:14:03.725Z,8.97
2018-10-11T18:16:32.051Z,9.17
2018-10-11T18:19:00.309Z,8.93
2018-10-11T18:21:28.659Z,9.30
2018-10-11T18:23:56.872Z,8.67
2018-10-11T18:26:25.168Z,9.27
2018-10-11T18:28:53.443Z,9.30
2018-10-11T18:31:21.757Z,9.37
2018-10-11T18:33:50.014Z,9.63
2018-10-11T18:36:18.271Z,9.97
2018-10-11T18:38:46.569Z,9.37
2018-10-11T18:41:45.482Z,10.80
2018-10-11T18:44:13.737Z,11.13
2018-10-11T18:46:41.992Z,10.97
2018-10-11T18:49:10.761Z,12.03
2018-10-11T18:51:39.028Z,11.43
2018-10-11T18:54:07.287Z,10.37
2018-10-11T18:56:35.542Z,10.93
2018-10-11T18:59:03.812Z,11.10
2018-10-11T19:01:32.201Z,9.90
2018-10-11T19:04:00.461Z,10.37
2018-10-11T19:06:28.821Z,9.57
2018-10-11T19:08:57.018Z,9.13
2018-10-11T19:11:25.354Z,9.50
2018-10-11T19:13:53.613Z,10.27
2018-10-11T19:16:21.918Z,10.13
2018-10-11T19:18:50.169Z,9.57
2018-10-11T19:21:18.432Z,11.30
2018-10-11T19:23:46.675Z,10.60
2018-10-11T19:26:14.912Z,10.77
2018-10-11T19:28:43.176Z,11.70
2018-10-11T19:31:11.449Z,11.83
2018-10-11T19:33:39.747Z,11.40
2018-10-11T19:36:08.345Z,11.87
2018-10-11T19:38:36.630Z,12.37
2018-10-11T19:41:04.919Z,11.07
2018-10-11T19:43:33.169Z,11.80
2018-10-11T19:46:01.449Z,10.37
2018-10-11T19:48:29.769Z,11.20
2018-10-11T19:50:58.047Z,10.90
2018-10-11T19:53:26.289Z,10.40
2018-10-11T19:55:54.582Z,10.20
2018-10-11T19:58:23.068Z,10.30
2018-10-11T20:00:51.329Z,11.03
2018-10-11T20:03:19.572Z,11.33
2018-10-11T20:05:47.837Z,11.47
2018-10-11T20:08:16.258Z,10.90
2018-10-11T20:10:44.390Z,10.33
2018-10-11T20:13:12.649Z,11.00
2018-10-11T20:15:40.908Z,11.80
2018-10-11T20:18:09.162Z,10.80
2018-10-11T20:20:37.427Z,11.20
2018-10-11T20:23:05.805Z,11.90
2018-10-11T20:25:34.045Z,12.30
2018-10-11T20:28:02.319Z,12.63
2018-10-11T20:30:30.587Z,12.53
2018-10-11T20:32:58.843Z,11.80
2018-10-11T20:35:27.113Z,13.57
2018-10-11T20:37:55.381Z,13.97
2018-10-11T20:40:23.664Z,14.83
2018-10-11T20:42:51.917Z,14.40
2018-10-11T20:45:20.444Z,14.83
2018-10-11T20:47:48.732Z,16.40
2018-10-11T20:50:16.992Z,14.80
2018-10-11T20:52:45.277Z,15.07
2018-10-11T20:55:13.521Z,13.63
2018-10-11T20:57:41.750Z,14.20
2018-10-11T21:00:10.381Z,12.93
2018-10-11T21:02:38.704Z,12.93
2018-10-11T21:05:06.957Z,13.27
2018-10-11T21:07:35.205Z,11.47
2018-10-11T21:10:03.478Z,13.30
2018-10-11T21:12:31.700Z,13.40
2018-10-11T21:14:59.930Z,12.73
2018-10-11T21:17:28.156Z,13.07
2018-10-11T21:19:56.462Z,13.27
2018-10-11T21:22:24.653Z,13.10
2018-10-11T21:24:52.885Z,13.20
2018-10-11T21:27:21.120Z,12.70
2018-10-11T21:29:49.353Z,13.17
2018-10-11T21:32:17.580Z,14.50
2018-10-11T21:34:45.812Z,13.40
2018-10-11T21:37:14.058Z,13.67
2018-10-11T21:39:42.298Z,13.50
2018-10-11T21:42:10.529Z,13.73
2018-10-11T21:44:38.784Z,13.40
2018-10-11T21:47:07.344Z,12.83
2018-10-11T21:49:35.652Z,13.43
2018-10-11T21:52:03.884Z,12.07
2018-10-11T21:54:32.125Z,13.20
2018-10-11T21:57:00.360Z,13.20
2018-10-11T21:59:28.590Z,12.30
2018-10-11T22:01:56.837Z,12.03
2018-10-11T22:04:25.074Z,12.97
2018-10-11T22:06:53.316Z,12.60
2018-10-11T22:09:21.572Z,12.90
2018-10-11T22:11:49.812Z,13.07
2018-10-11T22:14:18.048Z,13.27
2018-10-11T22:16:46.286Z,12.20
2018-10-11T22:19:14.518Z,12.87
2018-10-11T22:21:42.761Z,13.70
2018-10-11T22:24:11.005Z,12.60
2018-10-11T22:26:39.245Z,13.53
2018-10-11T22:29:07.556Z,13.87
2018-10-11T22:31:35.781Z,12.50
2018-10-11T22:34:04.024Z,12.50
2018-10-11T22:36:32.281Z,13.50
2018-10-11T22:39:00.509Z,13.43
2018-10-11T22:41:28.785Z,12.93
2018-10-11T22:43:57.039Z,13.57
2018-10-11T22:46:25.312Z,13.07
2018-10-11T22:48:53.557Z,13.37
2018-10-11T22:51:21.807Z,13.53
2018-10-11T22:53:50.075Z,13.73
2018-10-11T22:56:21.872Z,13.33
2018-10-11T22:58:51.008Z,13.97
2018-10-11T23:01:19.238Z,13.73
2018-10-11T23:03:47.480Z,14.43
2018-10-11T23:06:15.711Z,14.37
2018-10-11T23:08:43.964Z,13.90
2018-10-11T23:11:12.227Z,13.20
2018-10-11T23:13:40.880Z,13.57
2018-10-11T23:16:09.823Z,13.60
2018-10-11T23:18:38.253Z,13.23
2018-10-11T23:21:06.493Z,13.20
2018-10-11T23:23:34.720Z,13.47
2018-10-11T23:26:02.963Z,13.17
2018-10-11T23:28:31.192Z,13.47
2018-10-11T23:30:59.441Z,13.83
2018-10-11T23:33:27.700Z,13.33
2018-10-11T23:35:55.944Z,13.20
2018-10-11T23:38:24.200Z,13.27
2018-10-11T23:40:52.432Z,12.80
2018-10-11T23:43:20.664Z,12.30
2018-10-11T23:45:48.896Z,13.97
2018-10-11T23:48:17.169Z,13.47
2018-10-11T23:50:45.417Z,13.97
2018-10-11T23:53:13.665Z,12.33
2018-10-11T23:55:41.897Z,13.30
2018-10-11T23:58:10.128Z,12.90
